Time;durP1;ratioP1;P1;durP2;ratioP2;P2;SDS_P1;SDS_P2;PMS_P1;PMS_P2;Temp;Humidity;BMP_temperature;BMP_pressure;BME280_temperature;BME280_humidity;BME280_pressure;Samples;Min_cycle;Max_cycle;Signal;HPM_P1;HPM_P2
2022/01/14 00:01:06;;;;;;;52.45;18.23;;;6.00;99.90;;;;;;5048237;28;20052;-80
2022/01/14 00:03:31;;;;;;;57.60;23.58;;;6.00;99.90;;;;;;5072259;28;20093;-79
2022/01/14 00:05:57;;;;;;;56.58;22.75;;;6.00;99.90;;;;;;5072582;28;20051;-81
2022/01/14 00:08:23;;;;;;;54.70;20.95;;;6.00;99.90;;;;;;5078560;28;20044;-78
2022/01/14 00:10:49;;;;;;;53.38;23.05;;;6.00;99.90;;;;;;5059489;28;20469;-79
2022/01/14 00:13:43;;;;;;;57.25;22.33;;;6.00;99.90;;;;;;5058662;28;20047;-79
2022/01/14 00:16:03;;;;;;;55.33;21.83;;;6.00;99.90;;;;;;5094526;28;20051;-80
2022/01/14 00:18:29;;;;;;;49.95;20.85;;;6.00;99.90;;;;;;5079673;28;20079;-78
2022/01/14 00:20:55;;;;;;;52.50;22.85;;;6.00;99.90;;;;;;5086052;28;20487;-78
2022/01/14 00:23:27;;;;;;;60.35;23.27;;;6.10;99.90;;;;;;5075609;28;20143;-79
2022/01/14 00:34:06;;;;;;;50.15;21.60;;;6.00;99.90;;;;;;5081681;28;20054;-79
2022/01/14 00:36:32;;;;;;;49.13;20.55;;;6.00;99.90;;;;;;5082254;28;20048;-79
2022/01/14 00:38:57;;;;;;;40.88;19.85;;;6.00;99.90;;;;;;5076935;28;20050;-80
2022/01/14 00:41:23;;;;;;;49.95;19.95;;;6.00;99.90;;;;;;5076534;28;20066;-78
2022/01/14 00:43:53;;;;;;;41.13;19.40;;;6.00;99.90;;;;;;5084874;28;20094;-78
2022/01/14 00:46:19;;;;;;;44.42;19.38;;;6.00;99.90;;;;;;5083415;28;20047;-79
2022/01/14 00:48:44;;;;;;;46.67;19.15;;;6.00;99.90;;;;;;5081957;28;20343;-78
2022/01/14 00:51:10;;;;;;;49.60;19.27;;;5.90;99.90;;;;;;5088527;28;20053;-81
2022/01/14 00:53:36;;;;;;;49.20;19.85;;;5.90;99.90;;;;;;5091739;28;20085;-79
2022/01/14 00:59:16;;;;;;;44.35;19.42;;;5.90;99.90;;;;;;5069407;28;20051;-79
2022/01/14 01:01:46;;;;;;;41.05;17.70;;;5.90;99.90;;;;;;5092315;28;20051;-83
2022/01/14 01:04:21;;;;;;;39.92;18.50;;;5.90;99.90;;;;;;5091121;28;20052;-80
2022/01/14 01:06:48;;;;;;;48.83;21.08;;;5.90;99.90;;;;;;5084223;28;20117;-79
2022/01/14 01:09:15;;;;;;;50.20;21.90;;;5.90;99.90;;;;;;5087231;28;20047;-79
2022/01/14 01:11:50;;;;;;;46.15;20.30;;;5.90;99.90;;;;;;5094330;28;20107;-82
2022/01/14 01:14:33;;;;;;;49.33;20.17;;;6.00;99.90;;;;;;5094197;28;20127;-79
2022/01/14 01:16:59;;;;;;;48.78;21.05;;;5.90;99.90;;;;;;5061188;28;20780;-78
2022/01/14 01:19:25;;;;;;;50.35;21.02;;;5.90;99.90;;;;;;5080097;28;20048;-79
2022/01/14 01:21:50;;;;;;;50.10;20.33;;;5.90;99.90;;;;;;5079642;28;20537;-80
2022/01/14 01:24:17;;;;;;;47.92;20.40;;;5.90;99.90;;;;;;5094575;28;20055;-80
2022/01/14 01:26:43;;;;;;;50.28;19.70;;;5.90;99.90;;;;;;5062407;28;20040;-80
2022/01/14 01:31:40;;;;;;;43.45;20.38;;;5.90;99.90;;;;;;5078139;28;20048;-79
2022/01/14 01:34:14;;;;;;;52.28;20.45;;;5.90;99.90;;;;;;5092172;28;20160;-79
2022/01/14 01:36:42;;;;;;;47.95;20.90;;;5.90;99.90;;;;;;5092807;28;20048;-80
2022/01/14 01:39:11;;;;;;;44.88;20.80;;;5.90;99.90;;;;;;5091514;28;20082;-78
2022/01/14 01:41:40;;;;;;;41.70;20.52;;;5.90;99.90;;;;;;5091322;28;20050;-79
2022/01/14 01:44:07;;;;;;;53.15;21.65;;;5.80;99.90;;;;;;5076326;28;20052;-80
2022/01/14 01:46:38;;;;;;;48.10;21.95;;;5.80;99.90;;;;;;5088988;28;20145;-79
2022/01/14 01:49:05;;;;;;;45.67;20.58;;;5.80;99.90;;;;;;5078682;28;20043;-79
2022/01/14 01:51:31;;;;;;;43.45;20.80;;;5.80;99.90;;;;;;5060970;28;20052;-79
2022/01/14 01:53:57;;;;;;;45.55;18.95;;;5.80;99.90;;;;;;5087296;28;20079;-81
2022/01/14 01:56:23;;;;;;;46.00;20.77;;;5.80;99.90;;;;;;5063705;28;20072;-79
2022/01/14 01:58:49;;;;;;;48.35;19.60;;;5.80;99.90;;;;;;5085620;28;20071;-79
2022/01/14 02:01:15;;;;;;;45.75;20.00;;;5.80;99.90;;;;;;5107407;28;20151;-78
2022/01/14 02:03:40;;;;;;;46.70;21.17;;;5.80;99.90;;;;;;5089484;28;20044;-79
2022/01/14 02:06:06;;;;;;;51.30;20.63;;;5.80;99.90;;;;;;5076046;28;20061;-79
2022/01/14 02:08:32;;;;;;;45.97;20.33;;;5.70;99.90;;;;;;5080005;28;20044;-80
2022/01/14 02:10:59;;;;;;;50.33;20.75;;;5.80;99.90;;;;;;5052115;28;20044;-79
2022/01/14 02:13:25;;;;;;;49.25;20.40;;;5.80;99.90;;;;;;5066998;28;20044;-79
2022/01/14 02:19:00;;;;;;;49.30;21.02;;;5.80;99.90;;;;;;5083799;28;20058;-80
2022/01/14 02:24:31;;;;;;;44.65;19.38;;;5.90;99.90;;;;;;5104709;27;20067;-79
2022/01/14 02:26:55;;;;;;;48.63;19.65;;;5.90;99.90;;;;;;5081188;28;20048;-84
2022/01/14 02:29:21;;;;;;;47.00;19.48;;;5.90;99.90;;;;;;5073693;28;20436;-80
2022/01/14 02:31:48;;;;;;;46.45;19.77;;;5.90;99.90;;;;;;5091435;28;20056;-80
2022/01/14 02:34:15;;;;;;;49.83;20.10;;;5.90;99.90;;;;;;5059079;28;20051;-79
2022/01/14 02:36:43;;;;;;;48.22;19.70;;;5.90;99.90;;;;;;5075753;28;20066;-79
2022/01/14 02:39:10;;;;;;;44.03;20.20;;;6.00;99.90;;;;;;5073701;28;20059;-79
2022/01/14 02:41:40;;;;;;;46.65;19.35;;;6.00;99.90;;;;;;5084590;28;20110;-80
2022/01/14 02:44:09;;;;;;;49.88;21.00;;;6.00;99.90;;;;;;5076276;28;20143;-80
2022/01/14 02:46:40;;;;;;;50.92;19.75;;;6.00;99.90;;;;;;5092596;28;20052;-80
2022/01/14 02:49:06;;;;;;;47.55;20.48;;;6.00;99.90;;;;;;5089142;28;20079;-80
2022/01/14 02:51:32;;;;;;;44.58;20.33;;;6.00;99.90;;;;;;5075648;28;20126;-81
2022/01/14 02:54:11;;;;;;;50.35;20.65;;;6.10;99.90;;;;;;5108159;28;20092;-80
2022/01/14 02:56:38;;;;;;;47.60;21.15;;;6.00;99.90;;;;;;5088655;28;20043;-79
2022/01/14 02:59:06;;;;;;;51.13;19.73;;;6.00;99.90;;;;;;5088462;28;20036;-79
2022/01/14 03:01:33;;;;;;;49.65;20.98;;;6.10;99.90;;;;;;5085645;28;20518;-80
2022/01/14 03:04:03;;;;;;;47.90;20.60;;;6.00;99.90;;;;;;5075367;28;20086;-80
2022/01/14 03:06:29;;;;;;;57.53;23.27;;;6.10;99.90;;;;;;5090686;28;20145;-80
2022/01/14 03:08:57;;;;;;;45.45;21.23;;;6.10;99.90;;;;;;5091537;28;20131;-80
2022/01/14 03:11:44;;;;;;;47.30;19.73;;;6.10;99.90;;;;;;5057730;28;20176;-80
2022/01/14 03:14:10;;;;;;;52.08;20.65;;;6.10;99.90;;;;;;5071925;28;20419;-79
2022/01/14 03:16:41;;;;;;;46.40;21.27;;;6.10;99.90;;;;;;5055937;28;20048;-80
2022/01/14 03:19:15;;;;;;;45.38;19.42;;;6.10;99.90;;;;;;5088452;28;20520;-81
2022/01/14 03:21:42;;;;;;;52.83;20.65;;;6.10;99.90;;;;;;5085139;28;20040;-80
2022/01/14 03:26:46;;;;;;;50.42;21.02;;;6.10;99.90;;;;;;5077123;28;20101;-79
2022/01/14 03:29:13;;;;;;;48.75;21.45;;;6.20;99.90;;;;;;5090571;28;20062;-80
2022/01/14 03:31:39;;;;;;;46.53;20.10;;;6.10;99.90;;;;;;5087241;28;20051;-79
2022/01/14 03:34:04;;;;;;;41.65;20.20;;;6.10;99.90;;;;;;5077147;28;20052;-81
2022/01/14 03:36:30;;;;;;;48.22;22.02;;;6.10;99.90;;;;;;5042953;28;20099;-79
2022/01/14 03:38:56;;;;;;;43.40;19.83;;;6.20;99.90;;;;;;5039090;28;20043;-80
2022/01/14 03:41:22;;;;;;;44.20;21.25;;;6.20;99.90;;;;;;5089349;28;20094;-79
2022/01/14 03:43:47;;;;;;;44.53;21.13;;;6.20;99.90;;;;;;5070501;28;20051;-80
2022/01/14 03:46:13;;;;;;;49.88;23.17;;;6.10;99.90;;;;;;5076887;28;20082;-79
2022/01/14 03:48:39;;;;;;;47.22;21.60;;;6.20;99.90;;;;;;5076834;28;20079;-79
2022/01/14 03:51:04;;;;;;;41.75;21.45;;;6.20;99.90;;;;;;5069115;28;20071;-79
2022/01/14 03:53:30;;;;;;;47.40;22.73;;;6.20;99.90;;;;;;5089397;28;20562;-80
2022/01/14 03:55:56;;;;;;;50.25;21.98;;;6.20;99.90;;;;;;5113519;28;20055;-79
2022/01/14 03:58:22;;;;;;;51.60;22.25;;;6.20;99.90;;;;;;5108511;28;20036;-79
2022/01/14 04:00:47;;;;;;;47.75;20.85;;;6.20;99.90;;;;;;5081348;28;20040;-80
2022/01/14 04:03:13;;;;;;;45.45;21.48;;;6.20;99.90;;;;;;5076837;28;20050;-79
2022/01/14 04:05:39;;;;;;;50.40;21.98;;;6.20;99.90;;;;;;5062656;28;20437;-79
2022/01/14 04:08:05;;;;;;;47.75;20.95;;;6.20;99.90;;;;;;5080667;28;20086;-79
2022/01/14 04:10:31;;;;;;;45.60;21.70;;;6.20;99.90;;;;;;5060093;28;20136;-80
2022/01/14 04:13:10;;;;;;;45.03;21.45;;;6.20;99.90;;;;;;5048686;28;20704;-79
2022/01/14 04:15:41;;;;;;;53.15;22.23;;;6.20;99.90;;;;;;5076549;28;20047;-79
2022/01/14 04:18:08;;;;;;;44.55;21.27;;;6.20;99.90;;;;;;5074307;28;20538;-79
2022/01/14 04:20:35;;;;;;;59.90;22.10;;;6.20;99.90;;;;;;5077860;28;20054;-79
2022/01/14 04:23:01;;;;;;;45.25;21.05;;;6.20;99.90;;;;;;5089821;28;20051;-79
2022/01/14 04:25:27;;;;;;;48.75;21.83;;;6.20;99.90;;;;;;5076765;28;20098;-79
2022/01/14 04:27:54;;;;;;;47.55;21.63;;;6.20;99.90;;;;;;5087715;28;20032;-80
2022/01/14 04:30:20;;;;;;;49.33;20.95;;;6.20;99.90;;;;;;5080022;28;20043;-79
2022/01/14 04:32:46;;;;;;;44.63;22.75;;;6.20;99.90;;;;;;5071204;28;20043;-79
2022/01/14 04:35:12;;;;;;;46.78;21.25;;;6.20;99.90;;;;;;5077323;28;20047;-78
2022/01/14 04:37:38;;;;;;;50.13;23.67;;;6.20;99.90;;;;;;5061549;28;20062;-78
2022/01/14 04:40:05;;;;;;;42.28;20.50;;;6.20;99.90;;;;;;5086787;28;20051;-78
2022/01/14 04:42:31;;;;;;;48.88;21.60;;;6.20;99.90;;;;;;5072908;28;20566;-79
2022/01/14 04:44:57;;;;;;;45.72;20.77;;;6.20;99.90;;;;;;5075047;28;20052;-81
2022/01/14 04:47:44;;;;;;;44.80;21.73;;;6.10;99.90;;;;;;5070695;28;20512;-79
2022/01/14 04:50:16;;;;;;;49.63;22.15;;;6.10;99.90;;;;;;5075236;28;20043;-78
2022/01/14 04:52:45;;;;;;;47.67;23.02;;;6.10;99.90;;;;;;5071992;28;20080;-80
2022/01/14 04:55:12;;;;;;;53.67;22.58;;;6.10;99.90;;;;;;5037959;28;20052;-79
2022/01/14 04:57:39;;;;;;;56.47;22.85;;;6.10;99.90;;;;;;5057072;28;20063;-79
2022/01/14 05:00:14;;;;;;;51.47;23.00;;;6.00;99.90;;;;;;5070342;28;20049;-78
2022/01/14 05:02:40;;;;;;;37.83;21.58;;;6.10;99.90;;;;;;5063061;28;20052;-78
2022/01/14 05:05:07;;;;;;;54.78;22.38;;;6.00;99.90;;;;;;5054561;28;20102;-79
2022/01/14 05:07:33;;;;;;;43.28;21.63;;;6.00;99.90;;;;;;5062089;28;20094;-79
2022/01/14 05:12:29;;;;;;;48.40;22.92;;;5.90;99.90;;;;;;5073679;28;20056;-80
2022/01/14 05:14:54;;;;;;;48.42;22.85;;;5.90;99.90;;;;;;5065612;28;20505;-78
2022/01/14 05:17:20;;;;;;;54.38;23.33;;;5.90;99.90;;;;;;5073288;28;20051;-85
2022/01/14 05:19:46;;;;;;;50.85;24.15;;;5.90;99.90;;;;;;5057057;28;20101;-79
2022/01/14 05:22:12;;;;;;;52.38;23.33;;;6.00;99.90;;;;;;5057204;28;20048;-80
2022/01/14 05:24:38;;;;;;;48.42;23.17;;;5.90;99.90;;;;;;5055903;28;20083;-78
2022/01/14 05:27:04;;;;;;;54.15;23.20;;;5.90;99.90;;;;;;5057355;28;20055;-79
2022/01/14 05:29:30;;;;;;;52.20;23.77;;;5.90;99.90;;;;;;5073385;28;20539;-78
2022/01/14 05:32:09;;;;;;;42.35;21.98;;;5.80;99.90;;;;;;5053769;28;20068;-79
2022/01/14 05:34:36;;;;;;;53.10;22.27;;;5.80;99.90;;;;;;5061771;28;20055;-78
2022/01/14 05:37:04;;;;;;;41.72;20.30;;;5.70;99.90;;;;;;5057984;28;20075;-79
2022/01/14 05:39:30;;;;;;;37.90;19.17;;;5.70;99.90;;;;;;5041749;28;20116;-78
2022/01/14 05:41:57;;;;;;;47.83;21.65;;;5.70;99.90;;;;;;5077564;28;20434;-79
2022/01/14 05:44:24;;;;;;;53.85;21.77;;;5.80;99.90;;;;;;5090396;28;20073;-80
2022/01/14 05:46:50;;;;;;;42.22;23.08;;;5.70;99.90;;;;;;5100843;28;20040;-78
2022/01/14 05:49:17;;;;;;;41.83;19.95;;;5.70;99.90;;;;;;5073975;28;20466;-79
2022/01/14 05:51:43;;;;;;;48.20;23.48;;;5.80;99.90;;;;;;5057588;28;20048;-79
2022/01/14 05:54:09;;;;;;;44.88;22.35;;;5.80;99.90;;;;;;5074873;28;20076;-78
2022/01/14 05:56:35;;;;;;;43.55;21.45;;;5.80;99.90;;;;;;5054598;28;20449;-78
2022/01/14 05:59:01;;;;;;;47.75;21.98;;;5.80;99.90;;;;;;5074037;28;20105;-78
2022/01/14 06:01:30;;;;;;;47.60;22.73;;;5.80;99.90;;;;;;5069633;28;20035;-82
2022/01/14 06:04:03;;;;;;;47.90;23.52;;;5.80;99.90;;;;;;5076160;28;20091;-78
2022/01/14 06:06:29;;;;;;;49.22;22.27;;;5.80;99.90;;;;;;5086244;28;20131;-82
2022/01/14 06:08:55;;;;;;;53.25;23.45;;;5.80;99.90;;;;;;5075774;28;20040;-78
2022/01/14 06:11:21;;;;;;;47.70;23.40;;;5.80;99.90;;;;;;5093822;28;20059;-78
2022/01/14 06:13:47;;;;;;;49.08;21.90;;;5.80;99.90;;;;;;5043864;28;20132;-78
2022/01/14 06:16:13;;;;;;;48.90;22.55;;;5.80;99.90;;;;;;5076212;28;20121;-79
2022/01/14 06:18:39;;;;;;;42.47;21.73;;;5.80;99.90;;;;;;5059646;28;20078;-78
2022/01/14 06:21:05;;;;;;;45.90;22.13;;;5.80;99.90;;;;;;5078147;28;20779;-78
2022/01/14 06:23:31;;;;;;;40.78;21.95;;;5.90;99.90;;;;;;5043808;28;20040;-80
2022/01/14 06:25:57;;;;;;;42.75;22.85;;;5.80;99.90;;;;;;5074181;28;20487;-80
2022/01/14 06:28:23;;;;;;;44.50;23.23;;;5.80;99.90;;;;;;5092800;28;20040;-77
2022/01/14 06:30:49;;;;;;;40.58;22.33;;;5.90;99.90;;;;;;5071851;28;20133;-77
2022/01/14 06:33:15;;;;;;;43.00;22.00;;;5.90;99.90;;;;;;5070036;28;20393;-76
2022/01/14 06:35:41;;;;;;;41.08;22.83;;;5.90;99.90;;;;;;5070385;28;20043;-76
2022/01/14 06:38:07;;;;;;;42.63;21.25;;;5.80;99.90;;;;;;5106475;28;21920;-78
2022/01/14 06:40:33;;;;;;;42.85;23.73;;;5.90;99.90;;;;;;5073169;28;20065;-82
2022/01/14 06:43:00;;;;;;;40.80;20.73;;;5.90;99.90;;;;;;5103696;28;20123;-79
2022/01/14 06:45:26;;;;;;;38.70;21.95;;;5.90;99.90;;;;;;5109215;28;20461;-79
2022/01/14 06:47:52;;;;;;;42.78;21.85;;;5.80;99.90;;;;;;5085506;28;20036;-82
2022/01/14 06:50:19;;;;;;;49.85;22.92;;;5.90;99.90;;;;;;5087415;28;20043;-79
2022/01/14 06:52:45;;;;;;;45.05;23.02;;;5.80;99.90;;;;;;5101673;28;20535;-80
2022/01/14 06:55:11;;;;;;;42.95;21.27;;;5.80;99.90;;;;;;5072414;28;20043;-79
2022/01/14 06:57:37;;;;;;;41.13;22.20;;;5.80;99.90;;;;;;5067469;28;20472;-83
2022/01/14 07:00:09;;;;;;;40.85;20.35;;;5.90;99.90;;;;;;5103220;28;20052;-77
2022/01/14 07:02:35;;;;;;;40.47;20.52;;;5.80;99.90;;;;;;5084988;28;20052;-77
2022/01/14 07:05:01;;;;;;;42.00;20.42;;;5.90;99.90;;;;;;5082259;28;20372;-77
2022/01/14 07:07:26;;;;;;;42.55;21.85;;;5.90;99.90;;;;;;5074490;28;20104;-79
2022/01/14 07:09:58;;;;;;;43.30;21.15;;;5.90;99.90;;;;;;5059913;28;20500;-80
2022/01/14 07:12:29;;;;;;;38.47;20.27;;;5.90;99.90;;;;;;5072310;28;20085;-78
2022/01/14 07:14:56;;;;;;;44.15;20.98;;;5.90;99.90;;;;;;5091947;28;20044;-78
2022/01/14 07:17:23;;;;;;;45.58;21.85;;;5.90;99.90;;;;;;5056179;28;20044;-78
2022/01/14 07:19:52;;;;;;;45.67;21.17;;;5.90;99.90;;;;;;5071923;28;20040;-78
2022/01/14 07:22:18;;;;;;;49.45;21.90;;;5.90;99.90;;;;;;5056239;28;20060;-78
2022/01/14 07:24:44;;;;;;;46.58;21.92;;;5.90;99.90;;;;;;5072047;28;20062;-78
2022/01/14 07:27:10;;;;;;;41.67;20.88;;;5.90;99.90;;;;;;5055914;28;20050;-78
2022/01/14 07:29:36;;;;;;;36.75;20.75;;;5.90;99.90;;;;;;5090417;28;20464;-78
2022/01/14 07:32:02;;;;;;;44.83;20.58;;;5.90;99.90;;;;;;5094960;28;20064;-79
2022/01/14 07:34:29;;;;;;;35.72;19.95;;;5.90;99.90;;;;;;5066309;28;20485;-78
2022/01/14 07:36:54;;;;;;;40.00;20.65;;;5.90;99.90;;;;;;5073215;28;20130;-77
2022/01/14 07:39:20;;;;;;;40.53;19.70;;;5.90;99.90;;;;;;5065817;28;20587;-77
2022/01/14 07:41:46;;;;;;;42.38;20.38;;;6.00;99.90;;;;;;5077791;28;20052;-78
2022/01/14 07:44:13;;;;;;;39.38;20.95;;;6.00;99.90;;;;;;5104455;28;20056;-80
2022/01/14 07:46:39;;;;;;;46.83;22.10;;;5.90;99.90;;;;;;5082685;28;20489;-78
2022/01/14 07:49:04;;;;;;;34.85;18.70;;;6.00;99.90;;;;;;5061889;28;20043;-78
2022/01/14 07:51:30;;;;;;;40.45;18.38;;;5.90;99.90;;;;;;5080081;28;20058;-78
2022/01/14 07:53:56;;;;;;;43.58;19.50;;;6.00;99.90;;;;;;5067394;28;20096;-79
2022/01/14 07:56:22;;;;;;;42.90;19.60;;;6.00;99.90;;;;;;5043943;28;20048;-78
2022/01/14 07:58:48;;;;;;;44.35;20.48;;;6.00;99.90;;;;;;5096603;28;20071;-79
2022/01/14 08:01:14;;;;;;;44.17;20.02;;;6.00;99.90;;;;;;5084036;28;20101;-78
2022/01/14 08:03:40;;;;;;;36.65;18.50;;;6.00;99.90;;;;;;5069860;28;20040;-78
2022/01/14 08:06:07;;;;;;;39.40;19.00;;;6.00;99.90;;;;;;5081232;28;20588;-79
2022/01/14 08:08:33;;;;;;;39.50;19.10;;;6.00;99.90;;;;;;5083869;28;20493;-79
2022/01/14 08:10:58;;;;;;;39.60;19.08;;;6.10;99.90;;;;;;5070262;28;20047;-78
2022/01/14 08:13:24;;;;;;;40.22;18.85;;;6.10;99.90;;;;;;5067432;28;20435;-78
2022/01/14 08:15:50;;;;;;;38.83;20.05;;;6.10;99.90;;;;;;5076080;28;20032;-79
2022/01/14 08:18:15;;;;;;;41.17;18.75;;;6.10;99.90;;;;;;5052898;28;20039;-78
2022/01/14 08:20:41;;;;;;;41.45;18.15;;;6.10;99.90;;;;;;5073132;28;20044;-78
2022/01/14 08:23:07;;;;;;;38.92;18.27;;;6.10;99.90;;;;;;5108119;28;20055;-78
2022/01/14 08:25:32;;;;;;;37.25;18.48;;;6.10;99.90;;;;;;5066074;28;20051;-79
2022/01/14 08:27:58;;;;;;;33.30;17.70;;;6.20;99.90;;;;;;5079656;28;20185;-79
2022/01/14 08:30:24;;;;;;;38.10;18.33;;;6.20;99.90;;;;;;5094363;28;20056;-77
2022/01/14 08:32:50;;;;;;;42.00;17.38;;;6.20;99.90;;;;;;5082641;28;20044;-84
2022/01/14 08:35:16;;;;;;;40.80;17.52;;;6.20;99.90;;;;;;5106486;28;20050;-78
2022/01/14 08:37:42;;;;;;;31.40;16.98;;;6.20;99.90;;;;;;5083180;28;20044;-78
2022/01/14 08:40:09;;;;;;;38.47;17.92;;;6.30;99.90;;;;;;5079169;28;20055;-81
2022/01/14 08:42:36;;;;;;;37.10;16.60;;;6.20;99.90;;;;;;5061424;28;20056;-77
2022/01/14 08:45:04;;;;;;;34.20;16.92;;;6.30;99.90;;;;;;5065974;28;20064;-79
2022/01/14 08:47:30;;;;;;;33.45;16.70;;;6.30;99.90;;;;;;5071707;28;20052;-78
2022/01/14 08:49:56;;;;;;;37.72;16.60;;;6.40;99.90;;;;;;5046245;28;20044;-80
2022/01/14 08:52:21;;;;;;;35.38;16.38;;;6.40;99.90;;;;;;5069846;28;20063;-79
2022/01/14 08:54:47;;;;;;;39.20;14.32;;;6.40;99.90;;;;;;5074725;28;20051;-79
2022/01/14 08:57:13;;;;;;;35.85;15.50;;;6.50;99.90;;;;;;5044506;28;20036;-79
2022/01/14 08:59:40;;;;;;;40.00;16.88;;;6.40;99.90;;;;;;5065345;28;20044;-78
2022/01/14 09:02:06;;;;;;;31.05;15.32;;;6.50;99.90;;;;;;5065410;28;20083;-79
2022/01/14 09:04:34;;;;;;;39.70;16.38;;;6.50;99.90;;;;;;5070225;28;20081;-82
2022/01/14 09:07:00;;;;;;;38.35;16.58;;;6.50;99.90;;;;;;5061495;28;20052;-80
2022/01/14 09:09:26;;;;;;;28.25;14.70;;;6.50;99.90;;;;;;5055879;28;20416;-81
2022/01/14 09:11:54;;;;;;;42.15;15.30;;;6.60;99.90;;;;;;5085129;28;20134;-81
2022/01/14 09:14:21;;;;;;;34.40;15.15;;;6.60;99.90;;;;;;5075634;28;20059;-82
2022/01/14 09:16:47;;;;;;;33.90;14.13;;;6.60;99.90;;;;;;5075594;28;20094;-79
2022/01/14 09:19:14;;;;;;;25.90;13.57;;;6.60;99.90;;;;;;5080738;28;20119;-79
2022/01/14 09:21:42;;;;;;;29.20;13.35;;;6.70;99.90;;;;;;5085306;28;20051;-79
2022/01/14 09:24:08;;;;;;;29.08;13.40;;;6.70;99.90;;;;;;5086986;28;20059;-80
2022/01/14 09:26:35;;;;;;;26.83;13.13;;;6.80;99.90;;;;;;5083494;28;20036;-78
2022/01/14 09:29:04;;;;;;;24.15;12.90;;;6.80;99.90;;;;;;5053005;28;20520;-79
2022/01/14 09:31:30;;;;;;;31.90;13.02;;;6.90;99.90;;;;;;5061661;28;20421;-79
2022/01/14 09:33:56;;;;;;;27.65;11.95;;;6.90;99.90;;;;;;5083031;28;20047;-80
2022/01/14 09:36:23;;;;;;;27.73;12.40;;;6.90;99.90;;;;;;5079976;28;20176;-82
2022/01/14 09:38:48;;;;;;;29.35;11.40;;;7.00;99.90;;;;;;5065367;28;20040;-79
2022/01/14 09:41:17;;;;;;;30.60;11.98;;;7.00;99.90;;;;;;5059287;28;20447;-79
2022/01/14 09:43:44;;;;;;;30.48;11.27;;;7.00;99.90;;;;;;5090276;28;20083;-78
2022/01/14 09:46:11;;;;;;;19.75;10.18;;;7.10;99.90;;;;;;5078564;28;20043;-79
2022/01/14 09:48:38;;;;;;;23.77;10.18;;;7.20;99.90;;;;;;5100125;28;20059;-80
2022/01/14 09:51:04;;;;;;;23.02;9.85;;;7.20;99.90;;;;;;5087273;28;20448;-77
2022/01/14 09:53:31;;;;;;;21.63;9.88;;;7.30;99.90;;;;;;5074390;28;20054;-76
2022/01/14 09:55:57;;;;;;;27.75;9.60;;;7.30;99.90;;;;;;5074554;28;20553;-76
2022/01/14 09:58:24;;;;;;;19.55;8.40;;;7.30;99.90;;;;;;5081737;28;20040;-77
2022/01/14 10:00:50;;;;;;;19.88;8.25;;;7.40;99.90;;;;;;5061467;28;20392;-76
2022/01/14 10:03:25;;;;;;;22.40;9.02;;;7.40;99.90;;;;;;5110714;28;20052;-76
2022/01/14 10:05:56;;;;;;;23.52;9.63;;;7.40;99.90;;;;;;5085437;28;20047;-77
2022/01/14 10:08:26;;;;;;;27.95;8.85;;;7.50;99.90;;;;;;5093484;28;20040;-79
2022/01/14 10:10:59;;;;;;;18.73;7.35;;;7.40;99.90;;;;;;5061012;28;20053;-79
2022/01/14 10:13:31;;;;;;;21.73;7.55;;;7.50;99.90;;;;;;5102613;28;20119;-78
2022/01/14 10:16:00;;;;;;;15.90;7.68;;;7.50;99.90;;;;;;5077708;28;20104;-80
2022/01/14 10:18:26;;;;;;;17.92;7.93;;;7.60;99.90;;;;;;5085704;28;20055;-79
2022/01/14 10:20:57;;;;;;;16.95;6.85;;;7.60;99.90;;;;;;5079411;28;20050;-79
2022/01/14 10:23:43;;;;;;;16.60;7.00;;;7.60;99.90;;;;;;5081779;28;20301;-80
2022/01/14 10:26:09;;;;;;;13.15;6.50;;;7.60;99.90;;;;;;5089786;28;20048;-79
2022/01/14 10:28:35;;;;;;;15.27;6.35;;;7.60;99.90;;;;;;5059784;28;20044;-80
2022/01/14 10:31:02;;;;;;;15.32;8.75;;;7.80;99.90;;;;;;5075323;28;20149;-79
2022/01/14 10:33:29;;;;;;;15.38;5.25;;;7.80;99.90;;;;;;5074594;28;20505;-79
2022/01/14 10:35:55;;;;;;;18.35;7.35;;;7.80;99.90;;;;;;5104146;28;20516;-79
2022/01/14 10:38:23;;;;;;;13.35;6.15;;;7.80;99.90;;;;;;5079222;28;20067;-78
2022/01/14 10:40:55;;;;;;;16.70;8.05;;;7.80;99.90;;;;;;5082590;28;20043;-77
2022/01/14 10:43:29;;;;;;;12.90;5.63;;;7.80;99.90;;;;;;5101830;28;20193;-79
2022/01/14 10:45:55;;;;;;;12.18;5.85;;;7.80;99.90;;;;;;5097273;28;20047;-78
2022/01/14 10:48:32;;;;;;;18.95;6.50;;;7.90;99.90;;;;;;5088157;28;20480;-78
2022/01/14 10:51:02;;;;;;;19.05;5.90;;;7.80;99.90;;;;;;5077189;28;20527;-79
2022/01/14 10:53:38;;;;;;;14.05;6.10;;;7.80;99.90;;;;;;5057429;28;20064;-80
2022/01/14 10:56:03;;;;;;;20.48;6.95;;;7.80;99.90;;;;;;5082988;28;20047;-79
2022/01/14 10:58:33;;;;;;;22.23;6.97;;;7.80;99.90;;;;;;5083402;28;20824;-78
2022/01/14 11:01:01;;;;;;;15.57;6.95;;;7.80;99.90;;;;;;5087651;28;20485;-78
2022/01/14 11:03:37;;;;;;;20.67;7.30;;;7.70;99.90;;;;;;5096704;28;20059;-79
2022/01/14 11:06:42;;;;;;;14.27;6.00;;;7.80;99.90;;;;;;5082646;28;20054;-78
2022/01/14 11:09:11;;;;;;;13.73;5.43;;;7.70;99.90;;;;;;4978245;28;20052;-81
2022/01/14 11:11:47;;;;;;;16.05;6.40;;;7.70;99.90;;;;;;5060965;28;20058;-78
2022/01/14 11:14:14;;;;;;;21.95;6.50;;;7.70;99.90;;;;;;5056218;28;20044;-79
2022/01/14 11:16:40;;;;;;;19.15;7.47;;;7.70;99.90;;;;;;5081336;28;20115;-78
2022/01/14 11:19:08;;;;;;;22.23;9.90;;;7.70;99.90;;;;;;5065600;28;20044;-79
2022/01/14 11:24:39;;;;;;;16.73;5.72;;;7.70;99.90;;;;;;5077012;28;20067;-79
2022/01/14 11:27:12;;;;;;;19.15;6.00;;;7.70;99.90;;;;;;5099905;28;20105;-81
2022/01/14 11:29:41;;;;;;;16.95;6.45;;;7.70;99.90;;;;;;5087386;28;20413;-79
2022/01/14 11:32:08;;;;;;;19.38;6.35;;;7.70;99.90;;;;;;5056338;28;20121;-81
2022/01/14 11:34:34;;;;;;;19.55;6.90;;;7.70;99.90;;;;;;5072945;28;20091;-78
2022/01/14 11:37:02;;;;;;;18.30;6.47;;;7.80;99.90;;;;;;5083624;28;20078;-79
2022/01/14 11:39:31;;;;;;;18.52;6.10;;;7.80;99.90;;;;;;5058193;28;20126;-80
2022/01/14 11:42:02;;;;;;;15.52;5.95;;;7.80;99.90;;;;;;5083540;28;20044;-78
2022/01/14 11:44:56;;;;;;;13.50;5.30;;;7.80;99.90;;;;;;5068636;28;20047;-79
2022/01/14 11:47:25;;;;;;;19.13;5.60;;;7.80;99.90;;;;;;5080248;28;20044;-79
2022/01/14 11:49:52;;;;;;;19.27;5.28;;;7.80;99.90;;;;;;5090360;28;20096;-79
2022/01/14 11:52:36;;;;;;;16.42;5.65;;;7.80;99.90;;;;;;5084554;28;20047;-80
2022/01/14 11:55:03;;;;;;;22.75;6.60;;;7.80;99.90;;;;;;5079700;28;20109;-80
2022/01/14 11:57:45;;;;;;;17.50;6.65;;;7.80;99.90;;;;;;5089366;28;20480;-79
2022/01/14 12:00:26;;;;;;;17.30;5.93;;;7.80;99.90;;;;;;5058870;28;20508;-80
2022/01/14 12:03:13;;;;;;;31.42;11.60;;;7.80;99.90;;;;;;5088563;28;20044;-79
2022/01/14 12:05:50;;;;;;;23.25;5.97;;;7.80;99.90;;;;;;5081675;28;20046;-78
2022/01/14 12:08:19;;;;;;;18.17;5.95;;;7.90;99.90;;;;;;5087083;28;20048;-78
2022/01/14 12:10:47;;;;;;;14.52;5.07;;;7.90;99.90;;;;;;5077275;28;20485;-78
2022/01/14 12:18:58;;;;;;;18.30;5.67;;;8.00;99.90;;;;;;5104472;28;20043;-79
2022/01/14 12:21:48;;;;;;;17.73;5.55;;;7.90;99.90;;;;;;5088126;28;20875;-78
2022/01/14 12:24:27;;;;;;;13.82;4.90;;;8.00;99.90;;;;;;5063322;28;20473;-78
2022/01/14 12:27:08;;;;;;;14.23;5.15;;;8.00;99.90;;;;;;5087658;28;20374;-77
2022/01/14 12:29:37;;;;;;;17.65;5.20;;;8.00;99.90;;;;;;5066472;28;20035;-78
2022/01/14 12:32:03;;;;;;;17.23;5.13;;;8.00;99.90;;;;;;5070239;28;20040;-78
2022/01/14 12:35:00;;;;;;;19.75;5.97;;;8.00;99.90;;;;;;5063080;28;20040;-77
2022/01/14 12:37:31;;;;;;;;;;;8.00;99.90;;;;;;5076487;28;20176;-78
2022/01/14 12:40:04;;;;;;;16.45;4.90;;;8.00;99.90;;;;;;5108279;28;19924;-77
2022/01/14 12:42:30;;;;;;;12.95;4.57;;;7.90;99.90;;;;;;5100180;28;20535;-77
2022/01/14 12:44:56;;;;;;;12.32;4.85;;;8.00;99.90;;;;;;5102095;28;20055;-77
2022/01/14 12:47:30;;;;;;;17.33;5.10;;;7.90;99.90;;;;;;5077272;28;20059;-79
2022/01/14 12:50:01;;;;;;;17.50;4.82;;;7.90;99.90;;;;;;5078009;28;20036;-78
2022/01/14 12:52:37;;;;;;;18.83;4.78;;;7.90;99.90;;;;;;5092923;28;20052;-78
2022/01/14 12:55:05;;;;;;;12.82;4.35;;;7.90;99.90;;;;;;5064640;28;20094;-79
2022/01/14 12:57:30;;;;;;;11.57;4.72;;;7.90;99.90;;;;;;5085397;28;20066;-78
2022/01/14 12:59:56;;;;;;;14.02;5.30;;;7.90;99.90;;;;;;5070118;28;20040;-77
2022/01/14 13:02:24;;;;;;;14.18;5.15;;;7.90;99.90;;;;;;5091006;28;20051;-80
2022/01/14 13:04:59;;;;;;;14.77;5.22;;;7.80;99.90;;;;;;5064139;28;20054;-78
2022/01/14 13:07:25;;;;;;;16.85;5.28;;;7.80;99.90;;;;;;5091009;28;20039;-80
2022/01/14 13:09:52;;;;;;;19.80;6.80;;;7.80;99.90;;;;;;5082541;28;20083;-79
2022/01/14 13:12:20;;;;;;;12.30;5.63;;;7.80;99.90;;;;;;5084536;28;20051;-79
2022/01/14 13:14:52;;;;;;;18.55;6.97;;;7.80;99.90;;;;;;5086447;28;20122;-80
2022/01/14 13:17:26;;;;;;;15.43;6.22;;;7.80;99.90;;;;;;5080134;28;20180;-80
2022/01/14 13:19:57;;;;;;;12.55;5.65;;;7.80;99.90;;;;;;5088704;28;20512;-79